Terminal Aerodrome Forecast
Issued by NWS Hastings, NE

Home | Current Version | Previous Version | Text Only | Print | Product List | Glossary On
Versions: 1 2 3 4 5 6 7 8 9 10 11 12 13 14 15 16 17 18 19 20 21 22 23 24 25 26 27 28 29 30 31 32
000
FTUS43 KGID 231325 AAA
TAFGRI
TAF AMD
KGRI 231325Z 2313/2412 15013G19KT P6SM VCSH OVC015
     FM231400 15014G20KT 1 1/2SM -DZ OVC003
     FM231700 17017G22KT P6SM BKN025
     FM232000 17019G25KT P6SM BKN040
     FM240300 16016G24KT P6SM VCTS BKN080CB
     FM240700 12010KT P6SM VCSH OVC035=

USA.gov is the U.S. government's official web portal to all federal, state and local government web resources and services.